Time;durP1;ratioP1;P1;durP2;ratioP2;P2;SDS_P1;SDS_P2;PMS_P1;PMS_P2;Temp;Humidity;BMP_temperature;BMP_pressure;BME280_temperature;BME280_humidity;BME280_pressure;Samples;Min_cycle;Max_cycle;Signal;HPM_P1;HPM_P2
2022/01/22 00:00:04;;;;;;;131.33;20.00;;;;;;;;;;4991882;28;20186;-49
2022/01/22 00:02:30;;;;;;;110.70;17.47;;;;;;;;;;4994679;28;20211;-50
2022/01/22 00:04:56;;;;;;;95.90;15.53;;;;;;;;;;4995736;28;20877;-49
2022/01/22 00:07:22;;;;;;;92.93;15.03;;;;;;;;;;4994031;28;20189;-49
2022/01/22 00:09:58;;;;;;;139.17;21.63;;;;;;;;;;4999151;28;20193;-50
2022/01/22 00:12:43;;;;;;;93.83;16.37;;;;;;;;;;4993561;28;20208;-50
2022/01/22 00:15:10;;;;;;;89.27;14.83;;;;;;;;;;4995687;28;20261;-49
2022/01/22 00:17:36;;;;;;;86.57;15.27;;;;;;;;;;4998810;28;20193;-50
2022/01/22 00:20:03;;;;;;;141.33;21.57;;;;;;;;;;4994963;28;20213;-49
2022/01/22 00:22:32;;;;;;;107.83;17.33;;;;;;;;;;5000820;28;20185;-49
2022/01/22 00:25:01;;;;;;;141.07;21.83;;;;;;;;;;4998318;28;20227;-49
2022/01/22 00:27:28;;;;;;;96.33;16.40;;;;;;;;;;4996557;28;20209;-49
2022/01/22 00:29:54;;;;;;;61.23;12.33;;;;;;;;;;4997929;28;20808;-50
2022/01/22 00:32:20;;;;;;;75.73;13.83;;;;;;;;;;4993710;28;20202;-49
2022/01/22 00:34:46;;;;;;;84.10;15.20;;;;;;;;;;4995311;28;20221;-49
2022/01/22 00:37:12;;;;;;;97.17;16.87;;;;;;;;;;4994562;28;20195;-49
2022/01/22 00:39:38;;;;;;;84.00;15.00;;;;;;;;;;4994410;28;20212;-50
2022/01/22 00:42:10;;;;;;;106.77;17.00;;;;;;;;;;4994816;28;20212;-50
2022/01/22 00:44:36;;;;;;;98.20;16.50;;;;;;;;;;4989734;28;20627;-50
2022/01/22 00:47:02;;;;;;;87.43;15.33;;;;;;;;;;4997458;28;20192;-49
2022/01/22 00:49:29;;;;;;;95.60;16.23;;;;;;;;;;4994709;28;20287;-49
2022/01/22 00:51:55;;;;;;;90.53;15.80;;;;;;;;;;4989655;28;20315;-49
2022/01/22 00:54:21;;;;;;;89.50;15.17;;;;;;;;;;4996997;28;20231;-49
2022/01/22 00:56:47;;;;;;;68.13;12.80;;;;;;;;;;4996519;28;20193;-49
2022/01/22 00:59:13;;;;;;;83.80;14.60;;;;;;;;;;4997395;28;20258;-49
2022/01/22 01:01:39;;;;;;;117.43;18.73;;;;;;;;;;4993970;28;20189;-49
2022/01/22 01:04:08;;;;;;;58.10;11.60;;;;;;;;;;4989837;28;20209;-49
2022/01/22 01:06:33;;;;;;;120.37;19.33;;;;;;;;;;4992868;28;20211;-49
2022/01/22 01:09:01;;;;;;;120.83;19.43;;;;;;;;;;4993000;28;20204;-48
2022/01/22 01:11:29;;;;;;;117.23;20.13;;;;;;;;;;4995759;28;20181;-49
2022/01/22 01:13:59;;;;;;;104.73;16.90;;;;;;;;;;4990777;28;20547;-50
2022/01/22 01:35:09;;;;;;;146.37;22.83;;;;;;;;;;4984788;28;20331;-49
2022/01/22 01:37:35;;;;;;;173.77;26.33;;;;;;;;;;4990876;28;20221;-49
2022/01/22 01:40:04;;;;;;;183.60;27.63;;;;;;;;;;4981577;28;20204;-50
2022/01/22 01:42:48;;;;;;;145.77;22.43;;;;;;;;;;4986191;28;20208;-50
2022/01/22 01:45:14;;;;;;;175.33;25.63;;;;;;;;;;4979757;28;20205;-49
2022/01/22 01:47:43;;;;;;;141.00;21.60;;;;;;;;;;4985815;28;20188;-49
2022/01/22 01:50:09;;;;;;;181.93;27.30;;;;;;;;;;4980234;28;20247;-49
2022/01/22 01:53:27;;;;;;;126.37;19.17;;;;;;;;;;4991513;28;20288;-50
2022/01/22 01:55:35;;;;;;;136.23;20.93;;;;;;;;;;4980107;28;20660;-49
2022/01/22 01:58:00;;;;;;;153.40;23.80;;;;;;;;;;4990498;28;20216;-49
2022/01/22 02:00:26;;;;;;;94.47;16.23;;;;;;;;;;4990979;28;20184;-50
2022/01/22 02:02:53;;;;;;;106.60;17.90;;;;;;;;;;4990452;28;20304;-49
2022/01/22 02:05:22;;;;;;;129.57;20.00;;;;;;;;;;4986207;28;20189;-49
2022/01/22 02:07:49;;;;;;;137.87;21.67;;;;;;;;;;4986325;28;20204;-50
2022/01/22 02:10:23;;;;;;;154.60;23.40;;;;;;;;;;4980058;28;20649;-50
2022/01/22 02:23:43;;;;;;;201.00;29.17;;;;;;;;;;4983641;28;20232;-50
2022/01/22 02:26:10;;;;;;;120.73;19.23;;;;;;;;;;4980871;28;20204;-49
2022/01/22 02:28:36;;;;;;;147.17;22.27;;;;;;;;;;4991856;28;20200;-49
2022/01/22 02:31:11;;;;;;;151.40;23.47;;;;;;;;;;4985063;28;20239;-50
2022/01/22 02:33:55;;;;;;;116.70;19.40;;;;;;;;;;4983887;28;20211;-50
2022/01/22 02:36:32;;;;;;;134.40;21.20;;;;;;;;;;4981905;28;20198;-50
2022/01/22 02:41:25;;;;;;;149.80;23.00;;;;;;;;;;4988964;28;20197;-49
2022/01/22 02:43:53;;;;;;;120.43;19.33;;;;;;;;;;4990833;28;20232;-50
2022/01/22 02:46:21;;;;;;;123.53;20.23;;;;;;;;;;4990383;28;20820;-49
2022/01/22 02:48:47;;;;;;;113.47;18.90;;;;;;;;;;4992923;28;20335;-50
2022/01/22 02:51:13;;;;;;;67.23;13.10;;;;;;;;;;4992561;28;20300;-49
2022/01/22 02:53:39;;;;;;;55.87;12.10;;;;;;;;;;4989173;28;20876;-49
2022/01/22 02:56:05;;;;;;;78.90;13.47;;;;;;;;;;4993764;28;20239;-50
2022/01/22 02:58:31;;;;;;;103.90;17.27;;;;;;;;;;4992691;28;20264;-49
2022/01/22 03:00:57;;;;;;;132.17;21.37;;;;;;;;;;4987457;28;20195;-50
2022/01/22 03:03:23;;;;;;;135.70;22.27;;;;;;;;;;4989170;28;20743;-49
2022/01/22 03:05:49;;;;;;;75.93;14.53;;;;;;;;;;4988518;28;20233;-50
2022/01/22 03:08:15;;;;;;;75.37;13.50;;;;;;;;;;4989022;28;20191;-49
2022/01/22 03:10:49;;;;;;;48.80;10.33;;;;;;;;;;4987423;28;20279;-50
2022/01/22 03:16:11;;;;;;;145.13;21.87;;;;;;;;;;4985192;28;20219;-50
2022/01/22 03:18:50;;;;;;;185.63;27.43;;;;;;;;;;4984106;28;20606;-51
2022/01/22 03:29:19;;;;;;;88.73;15.97;;;;;;;;;;4993282;28;20235;-50
2022/01/22 03:31:45;;;;;;;43.20;10.23;;;;;;;;;;4993298;28;20229;-50
2022/01/22 03:34:11;;;;;;;66.57;11.90;;;;;;;;;;4995706;28;20216;-49
2022/01/22 03:36:38;;;;;;;99.73;16.77;;;;;;;;;;4997591;28;20633;-50
2022/01/22 03:39:05;;;;;;;143.20;21.63;;;;;;;;;;4994145;28;20712;-51
2022/01/22 03:41:31;;;;;;;78.30;14.13;;;;;;;;;;4991564;28;20657;-50
2022/01/22 03:43:57;;;;;;;87.87;15.83;;;;;;;;;;4993140;28;20263;-50
2022/01/22 03:46:23;;;;;;;116.33;14.30;;;;;;;;;;5023417;22;20232;-65
2022/01/22 03:48:49;;;;;;;63.80;8.20;;;;;;;;;;5002568;28;20247;-65
2022/01/22 03:51:15;;;;;;;100.93;12.23;;;;;;;;;;5001783;28;20264;-65
2022/01/22 03:53:41;;;;;;;89.47;11.20;;;;;;;;;;4998760;28;20212;-65
2022/01/22 03:56:07;;;;;;;102.10;12.67;;;;;;;;;;4975534;28;20232;-66
2022/01/22 03:58:38;;;;;;;82.60;10.10;;;;;;;;;;5005045;28;20189;-68
2022/01/22 04:02:01;;;;;;;115.67;13.90;;;;;;;;;;4993337;28;20192;-67
2022/01/22 04:03:59;;;;;;;35.67;4.93;;;;;;;;;;5000920;28;20669;-67
2022/01/22 04:09:06;;;;;;;82.33;10.27;;;;;;;;;;5000549;28;20216;-67
2022/01/22 04:11:35;;;;;;;58.83;7.60;;;;;;;;;;5002179;28;20733;-67
2022/01/22 04:14:03;;;;;;;103.87;12.63;;;;;;;;;;4981010;28;20773;-67
2022/01/22 04:16:30;;;;;;;59.03;7.57;;;;;;;;;;4999330;28;20205;-67
2022/01/22 04:27:12;;;;;;;62.10;7.93;;;;;;;;;;4999005;28;20200;-68
2022/01/22 04:29:39;;;;;;;56.17;7.20;;;;;;;;;;5003012;28;20181;-67
2022/01/22 04:32:05;;;;;;;57.83;7.20;;;;;;;;;;5008403;28;20691;-68
2022/01/22 04:34:31;;;;;;;44.87;6.00;;;;;;;;;;5005162;28;20209;-67
2022/01/22 04:36:57;;;;;;;76.43;9.40;;;;;;;;;;4980917;28;20219;-67
2022/01/22 04:39:25;;;;;;;81.90;10.03;;;;;;;;;;4995825;28;20184;-67
2022/01/22 04:41:54;;;;;;;67.83;8.40;;;;;;;;;;5006785;28;20188;-67
2022/01/22 04:44:21;;;;;;;75.23;9.23;;;;;;;;;;5005878;28;20177;-67
2022/01/22 04:52:28;;;;;;;51.10;6.47;;;;;;;;;;5003272;28;20193;-67
2022/01/22 04:55:00;;;;;;;82.70;10.20;;;;;;;;;;4995368;28;20231;-67
2022/01/22 04:57:26;;;;;;;58.27;7.47;;;;;;;;;;4999242;28;20185;-67
2022/01/22 04:59:52;;;;;;;80.20;9.90;;;;;;;;;;4993608;28;21190;-67
2022/01/22 05:02:18;;;;;;;128.23;15.33;;;;;;;;;;4996386;28;20185;-67
2022/01/22 05:04:44;;;;;;;64.27;8.13;;;;;;;;;;4995090;28;20745;-67
2022/01/22 05:07:10;;;;;;;59.57;7.40;;;;;;;;;;4982642;28;20295;-67
2022/01/22 05:09:36;;;;;;;80.40;10.03;;;;;;;;;;5001513;28;20197;-67
2022/01/22 05:12:04;;;;;;;93.07;11.27;;;;;;;;;;5000144;28;20181;-67
2022/01/22 05:14:30;;;;;;;102.27;12.30;;;;;;;;;;5002142;28;20213;-68
2022/01/22 05:16:58;;;;;;;55.93;7.17;;;;;;;;;;4999369;28;20576;-68
2022/01/22 05:19:43;;;;;;;131.97;15.63;;;;;;;;;;4998785;28;20183;-67
2022/01/22 05:22:26;;;;;;;101.00;12.10;;;;;;;;;;4995565;28;20717;-67
2022/01/22 05:24:57;;;;;;;76.27;9.50;;;;;;;;;;4982270;28;20254;-67
2022/01/22 05:27:37;;;;;;;59.57;7.67;;;;;;;;;;5007133;28;20227;-67
2022/01/22 05:38:01;;;;;;;94.37;11.37;;;;;;;;;;4996199;28;20188;-67
2022/01/22 05:40:28;;;;;;;76.10;9.33;;;;;;;;;;5000122;28;21008;-67
2022/01/22 05:42:54;;;;;;;77.57;9.47;;;;;;;;;;4995294;28;20192;-67
2022/01/22 05:45:20;;;;;;;94.60;11.47;;;;;;;;;;4994397;28;20224;-67
2022/01/22 05:47:46;;;;;;;50.70;6.30;;;;;;;;;;4981374;28;20187;-67
2022/01/22 05:50:25;;;;;;;60.20;7.63;;;;;;;;;;4998501;28;20655;-67
2022/01/22 05:52:59;;;;;;;75.97;9.23;;;;;;;;;;4997296;28;20181;-67
2022/01/22 05:59:35;;;;;;;174.97;20.47;;;;;;;;;;4988870;28;20633;-67
2022/01/22 06:00:58;;;;;;;70.30;8.73;;;;;;;;;;4999499;28;20299;-67
2022/01/22 06:03:24;;;;;;;95.20;11.43;;;;;;;;;;4998082;28;20295;-67
2022/01/22 06:05:50;;;;;;;80.03;9.70;;;;;;;;;;5002187;28;20601;-67
2022/01/22 06:08:17;;;;;;;88.93;10.87;;;;;;;;;;4995963;28;20263;-67
2022/01/22 06:10:46;;;;;;;105.23;12.53;;;;;;;;;;4992592;28;21113;-67
2022/01/22 06:13:16;;;;;;;77.57;9.57;;;;;;;;;;4979844;28;20183;-67
2022/01/22 06:15:42;;;;;;;62.67;7.83;;;;;;;;;;4997649;28;20552;-67
2022/01/22 06:18:08;;;;;;;93.37;11.20;;;;;;;;;;4990677;28;20175;-67
2022/01/22 06:20:34;;;;;;;51.47;6.77;;;;;;;;;;4994822;28;20267;-67
2022/01/22 06:23:01;;;;;;;68.60;8.73;;;;;;;;;;4999146;28;20236;-67
2022/01/22 06:25:27;;;;;;;74.27;9.27;;;;;;;;;;5002969;28;20263;-67
2022/01/22 06:27:52;;;;;;;45.93;6.03;;;;;;;;;;4980080;28;20188;-67
2022/01/22 06:30:19;;;;;;;35.87;4.90;;;;;;;;;;4998434;28;20189;-67
2022/01/22 06:32:45;;;;;;;101.40;12.17;;;;;;;;;;4993904;28;20193;-67
2022/01/22 06:35:11;;;;;;;137.67;16.10;;;;;;;;;;4976810;28;20243;-67
2022/01/22 06:37:37;;;;;;;37.77;4.97;;;;;;;;;;4993470;28;20188;-67
2022/01/22 06:42:33;;;;;;;70.63;8.53;;;;;;;;;;5000870;28;20724;-67
2022/01/22 06:45:00;;;;;;;87.77;10.67;;;;;;;;;;4994988;28;20235;-67
2022/01/22 06:47:27;;;;;;;71.97;9.07;;;;;;;;;;4997403;28;20280;-67
2022/01/22 06:49:53;;;;;;;102.60;12.17;;;;;;;;;;5001157;28;20720;-67
2022/01/22 06:52:19;;;;;;;58.87;7.33;;;;;;;;;;4997720;28;20180;-67
2022/01/22 06:54:45;;;;;;;124.23;14.50;;;;;;;;;;4994851;28;20227;-67
2022/01/22 06:57:11;;;;;;;99.83;11.63;;;;;;;;;;4976360;28;20177;-67
2022/01/22 06:59:37;;;;;;;64.07;7.97;;;;;;;;;;4995208;28;20185;-66
2022/01/22 07:02:04;;;;;;;100.13;12.10;;;;;;;;;;4995819;28;20240;-71
2022/01/22 07:04:31;;;;;;;99.47;12.07;;;;;;;;;;4997138;28;20185;-71
2022/01/22 07:06:58;;;;;;;105.17;12.57;;;;;;;;;;5001017;28;20200;-72
2022/01/22 07:09:24;;;;;;;89.97;10.97;;;;;;;;;;5000203;28;20719;-71
2022/01/22 07:11:50;;;;;;;77.53;9.50;;;;;;;;;;4999527;28;20177;-70
2022/01/22 07:14:16;;;;;;;101.17;12.23;;;;;;;;;;5000503;28;20204;-69
2022/01/22 07:16:42;;;;;;;86.53;10.57;;;;;;;;;;4999180;28;20184;-72
2022/01/22 07:19:08;;;;;;;112.63;13.27;;;;;;;;;;4997917;28;20762;-72
2022/01/22 07:21:36;;;;;;;122.47;14.47;;;;;;;;;;4986687;28;20585;-72
2022/01/22 07:26:29;;;;;;;169.93;19.77;;;;;;;;;;4990618;28;20221;-70
2022/01/22 07:28:55;;;;;;;110.53;13.40;;;;;;;;;;4974424;28;20200;-73
2022/01/22 07:31:23;;;;;;;173.07;20.20;;;;;;;;;;4985228;28;20215;-74
2022/01/22 07:33:49;;;;;;;130.20;15.43;;;;;;;;;;4997395;28;20209;-74
2022/01/22 07:36:15;;;;;;;141.20;16.57;;;;;;;;;;4997006;28;20204;-74
2022/01/22 07:38:41;;;;;;;140.03;16.57;;;;;;;;;;4975207;28;20713;-74
2022/01/22 07:41:07;;;;;;;91.10;10.97;;;;;;;;;;4995771;28;20291;-73
2022/01/22 07:43:34;;;;;;;388.53;47.43;;;;;;;;;;4992677;28;20199;-74
2022/01/22 07:46:00;;;;;;;134.87;15.97;;;;;;;;;;4983878;28;20690;-74
2022/01/22 07:48:26;;;;;;;96.63;11.83;;;;;;;;;;4979299;28;20219;-74
2022/01/22 07:50:51;;;;;;;119.17;14.23;;;;;;;;;;4991320;28;20578;-73
2022/01/22 07:53:18;;;;;;;112.03;13.30;;;;;;;;;;4983795;28;20244;-73
2022/01/22 07:55:43;;;;;;;139.37;16.37;;;;;;;;;;4992767;28;20300;-74
2022/01/22 07:58:11;;;;;;;88.60;10.70;;;;;;;;;;4998919;28;20267;-74
2022/01/22 08:00:37;;;;;;;84.70;10.13;;;;;;;;;;4983685;28;20267;-74
2022/01/22 08:03:04;;;;;;;118.10;13.97;;;;;;;;;;4987111;28;20853;-74
2022/01/22 08:05:30;;;;;;;77.33;9.57;;;;;;;;;;4997894;28;20205;-74
2022/01/22 08:07:55;;;;;;;148.40;17.57;;;;;;;;;;4997292;28;20684;-73
2022/01/22 08:10:21;;;;;;;140.60;16.37;;;;;;;;;;5000019;28;20187;-75
2022/01/22 08:12:51;;;;;;;118.70;14.23;;;;;;;;;;4999184;28;20264;-73
2022/01/22 08:15:18;;;;;;;115.03;13.67;;;;;;;;;;4997458;28;20217;-73
2022/01/22 08:17:44;;;;;;;77.87;9.57;;;;;;;;;;4984989;28;20189;-73
2022/01/22 08:20:12;;;;;;;78.93;9.70;;;;;;;;;;4998353;28;20185;-75
2022/01/22 08:22:38;;;;;;;102.60;12.33;;;;;;;;;;5002001;28;20189;-74
2022/01/22 08:25:04;;;;;;;141.00;16.77;;;;;;;;;;5000962;28;20204;-73
2022/01/22 08:29:57;;;;;;;122.23;15.30;;;;;;;;;;4998266;28;20295;-72
2022/01/22 08:37:33;;;;;;;143.53;17.10;;;;;;;;;;4998236;28;20211;-69
2022/01/22 08:40:00;;;;;;;147.13;17.37;;;;;;;;;;4994990;28;20185;-69
2022/01/22 08:42:27;;;;;;;97.47;11.57;;;;;;;;;;5002340;28;20184;-72
2022/01/22 08:44:53;;;;;;;81.80;9.80;;;;;;;;;;4996105;28;20270;-73
2022/01/22 08:47:19;;;;;;;101.60;12.23;;;;;;;;;;5005469;28;20594;-71
2022/01/22 08:49:45;;;;;;;110.37;13.53;;;;;;;;;;4998263;28;20836;-73
2022/01/22 08:52:13;;;;;;;125.77;15.40;;;;;;;;;;5000747;28;20909;-73
2022/01/22 08:54:40;;;;;;;104.20;12.97;;;;;;;;;;4997404;28;20212;-70
2022/01/22 08:57:06;;;;;;;212.77;24.50;;;;;;;;;;4996801;28;20666;-72
2022/01/22 08:59:32;;;;;;;95.67;11.73;;;;;;;;;;4980201;28;20181;-70
2022/01/22 09:01:58;;;;;;;143.50;17.00;;;;;;;;;;4982865;28;20204;-68
2022/01/22 09:04:24;;;;;;;127.77;15.30;;;;;;;;;;4993446;28;20312;-70
2022/01/22 09:06:50;;;;;;;157.83;18.63;;;;;;;;;;4984525;28;20287;-72
2022/01/22 09:09:16;;;;;;;162.97;19.40;;;;;;;;;;4988299;28;20197;-69
2022/01/22 09:11:43;;;;;;;126.57;14.80;;;;;;;;;;4979139;28;20302;-67
2022/01/22 09:14:10;;;;;;;151.50;18.07;;;;;;;;;;4991865;28;20263;-70
2022/01/22 09:16:36;;;;;;;121.77;14.33;;;;;;;;;;4992490;28;20209;-74
2022/01/22 09:19:09;;;;;;;68.20;8.50;;;;;;;;;;5002462;28;20185;-71
2022/01/22 09:21:36;;;;;;;138.50;16.30;;;;;;;;;;4980379;28;20204;-71
2022/01/22 09:24:02;;;;;;;105.37;12.90;;;;;;;;;;5002608;28;20275;-73
2022/01/22 09:26:29;;;;;;;83.37;10.27;;;;;;;;;;5002471;28;20687;-72
2022/01/22 09:28:57;;;;;;;85.57;10.47;;;;;;;;;;4989246;28;20196;-71
2022/01/22 09:31:23;;;;;;;86.47;10.80;;;;;;;;;;4995737;28;20670;-75
2022/01/22 09:33:49;;;;;;;95.70;11.63;;;;;;;;;;4993526;28;20204;-71
2022/01/22 09:36:15;;;;;;;116.70;13.73;;;;;;;;;;4996375;28;20209;-73
2022/01/22 09:38:41;;;;;;;92.27;11.30;;;;;;;;;;5004852;28;20262;-73
2022/01/22 09:41:07;;;;;;;108.33;13.03;;;;;;;;;;5002361;28;20189;-71
2022/01/22 09:43:33;;;;;;;130.00;15.60;;;;;;;;;;5006697;28;20199;-71
2022/01/22 09:45:59;;;;;;;67.77;14.17;;;;;;;;;;4996860;22;20774;-69
2022/01/22 09:48:25;;;;;;;109.13;18.47;;;;;;;;;;5035680;28;20190;-66
2022/01/22 09:50:51;;;;;;;36.63;8.20;;;;;;;;;;5018446;28;20192;-66
2022/01/22 09:53:19;;;;;;;82.07;15.70;;;;;;;;;;5039194;28;20604;-67
2022/01/22 09:55:45;;;;;;;43.43;10.23;;;;;;;;;;5027048;28;20247;-66
2022/01/22 09:58:11;;;;;;;100.57;17.20;;;;;;;;;;5005368;28;20215;-66
2022/01/22 10:00:37;;;;;;;142.93;22.73;;;;;;;;;;5004912;28;20605;-67
2022/01/22 10:03:03;;;;;;;83.00;14.50;;;;;;;;;;5003764;28;20672;-67
2022/01/22 10:05:31;;;;;;;202.47;28.17;;;;;;;;;;5004788;28;20286;-65
2022/01/22 10:08:15;;;;;;;71.97;14.57;;;;;;;;;;5009830;28;20295;-67
2022/01/22 10:10:41;;;;;;;92.10;15.63;;;;;;;;;;5004615;28;20395;-65
2022/01/22 10:13:07;;;;;;;120.30;18.80;;;;;;;;;;5020120;28;20683;-65
2022/01/22 10:15:35;;;;;;;106.97;17.80;;;;;;;;;;4995006;28;20292;-65
2022/01/22 10:18:02;;;;;;;80.73;14.60;;;;;;;;;;4996913;28;20192;-65
2022/01/22 10:20:30;;;;;;;34.03;8.73;;;;;;;;;;5010157;28;20180;-66
2022/01/22 10:23:02;;;;;;;101.00;17.27;;;;;;;;;;5023689;28;20270;-65
2022/01/22 10:25:33;;;;;;;57.40;11.20;;;;;;;;;;5010825;28;20226;-66
2022/01/22 10:28:04;;;;;;;70.63;14.00;;;;;;;;;;5008514;28;20211;-65
2022/01/22 10:30:39;;;;;;;137.93;22.23;;;;;;;;;;5012979;28;20191;-64
2022/01/22 10:33:33;;;;;;;67.87;12.33;;;;;;;;;;5009423;28;20207;-63
2022/01/22 10:36:14;;;;;;;109.73;18.63;;;;;;;;;;5009311;28;20200;-59
2022/01/22 10:38:40;;;;;;;93.83;16.67;;;;;;;;;;5017346;28;20240;-61
2022/01/22 10:41:07;;;;;;;56.10;12.37;;;;;;;;;;5006131;28;20199;-62
2022/01/22 10:43:35;;;;;;;110.63;19.03;;;;;;;;;;5013728;28;20176;-62
2022/01/22 10:49:04;;;;;;;90.30;16.03;;;;;;;;;;5007083;28;20260;-62
2022/01/22 10:51:30;;;;;;;50.60;10.83;;;;;;;;;;5017837;28;20621;-61
2022/01/22 10:54:00;;;;;;;65.80;14.17;;;;;;;;;;5020162;28;20204;-61
2022/01/22 10:56:30;;;;;;;77.77;15.47;;;;;;;;;;5011647;28;20208;-61
2022/01/22 10:59:01;;;;;;;75.50;13.83;;;;;;;;;;5027256;28;20598;-62
2022/01/22 11:01:45;;;;;;;55.40;12.07;;;;;;;;;;5018292;28;20184;-63
2022/01/22 11:04:13;;;;;;;131.57;22.17;;;;;;;;;;5012988;28;20207;-62
2022/01/22 11:06:40;;;;;;;81.80;15.90;;;;;;;;;;5005912;28;20208;-62
2022/01/22 11:09:07;;;;;;;39.80;9.43;;;;;;;;;;5010798;28;20622;-61
2022/01/22 11:11:37;;;;;;;54.40;12.53;;;;;;;;;;5016848;28;20696;-63
2022/01/22 11:14:04;;;;;;;77.77;15.73;;;;;;;;;;5013293;28;20218;-63
2022/01/22 11:16:31;;;;;;;88.47;16.10;;;;;;;;;;5015747;28;20199;-62
2022/01/22 11:18:57;;;;;;;128.73;21.10;;;;;;;;;;5008977;28;20219;-62
2022/01/22 11:21:23;;;;;;;50.90;11.47;;;;;;;;;;5022269;28;20219;-63
2022/01/22 11:23:49;;;;;;;80.07;15.73;;;;;;;;;;5009979;28;20188;-70
2022/01/22 11:26:15;;;;;;;77.20;15.57;;;;;;;;;;5010106;28;20353;-71
2022/01/22 11:28:43;;;;;;;105.60;17.87;;;;;;;;;;5013975;28;20188;-71
2022/01/22 11:31:10;;;;;;;75.17;15.33;;;;;;;;;;5014852;28;20196;-69
2022/01/22 11:33:39;;;;;;;98.43;17.63;;;;;;;;;;4994212;28;20278;-69
2022/01/22 11:36:09;;;;;;;87.50;16.97;;;;;;;;;;4988666;28;20215;-67
2022/01/22 11:38:36;;;;;;;102.10;17.30;;;;;;;;;;5016016;28;20214;-70
2022/01/22 11:41:19;;;;;;;62.60;12.43;;;;;;;;;;5017650;28;20216;-68
2022/01/22 11:44:01;;;;;;;65.00;12.53;;;;;;;;;;5020467;28;20181;-69
2022/01/22 11:46:34;;;;;;;93.87;16.87;;;;;;;;;;5002965;28;20234;-71
2022/01/22 11:49:13;;;;;;;109.47;18.53;;;;;;;;;;5011450;28;20185;-62
2022/01/22 11:51:40;;;;;;;103.27;17.07;;;;;;;;;;5015848;28;20184;-64
2022/01/22 11:54:06;;;;;;;71.03;12.40;;;;;;;;;;5018734;28;20204;-66
2022/01/22 11:56:42;;;;;;;74.40;14.33;;;;;;;;;;4996464;28;20353;-64
2022/01/22 11:59:15;;;;;;;84.50;15.30;;;;;;;;;;5025028;28;20290;-64
2022/01/22 12:01:54;;;;;;;85.37;15.23;;;;;;;;;;4998616;28;20655;-64
2022/01/22 12:04:24;;;;;;;50.53;11.07;;;;;;;;;;5022136;28;20479;-64
2022/01/22 12:07:02;;;;;;;41.00;10.37;;;;;;;;;;5035763;28;20211;-62
2022/01/22 12:09:33;;;;;;;70.30;13.43;;;;;;;;;;5014959;28;20218;-62
2022/01/22 12:15:04;;;;;;;94.87;16.90;;;;;;;;;;5017137;28;21237;-64
2022/01/22 12:23:08;;;;;;;105.77;18.53;;;;;;;;;;5010494;28;20199;-65
2022/01/22 12:25:34;;;;;;;65.07;14.17;;;;;;;;;;5013582;28;20331;-63
2022/01/22 12:28:00;;;;;;;87.80;16.67;;;;;;;;;;5017869;28;20286;-63
2022/01/22 12:30:42;;;;;;;41.00;9.70;;;;;;;;;;5011873;28;20516;-63
2022/01/22 12:33:12;;;;;;;111.07;20.27;;;;;;;;;;4998981;28;20195;-63
2022/01/22 12:35:40;;;;;;;37.30;9.93;;;;;;;;;;5027731;28;20695;-66
2022/01/22 12:38:47;;;;;;;54.77;13.37;;;;;;;;;;5028811;28;20220;-63
2022/01/22 12:44:05;;;;;;;102.37;19.37;;;;;;;;;;5016266;28;20184;-59
2022/01/22 12:46:32;;;;;;;95.83;17.90;;;;;;;;;;5021560;28;20217;-60
2022/01/22 12:48:58;;;;;;;52.17;13.33;;;;;;;;;;5027372;28;20196;-61
2022/01/22 12:51:25;;;;;;;72.03;15.97;;;;;;;;;;5024532;28;20203;-63
2022/01/22 12:53:51;;;;;;;48.60;12.70;;;;;;;;;;5028048;28;20628;-61
2022/01/22 12:56:48;;;;;;;56.67;12.70;;;;;;;;;;5015282;28;20741;-60
2022/01/22 12:59:10;;;;;;;98.47;20.13;;;;;;;;;;5020618;28;20592;-60
2022/01/22 13:01:38;;;;;;;68.43;15.97;;;;;;;;;;5020970;28;20192;-60
2022/01/22 13:04:07;;;;;;;86.10;17.77;;;;;;;;;;5026161;28;20253;-60
2022/01/22 13:06:41;;;;;;;81.27;17.73;;;;;;;;;;5015280;28;20621;-60
2022/01/22 13:09:08;;;;;;;84.03;16.90;;;;;;;;;;5011447;28;20494;-59
2022/01/22 13:11:43;;;;;;;57.73;13.93;;;;;;;;;;5019564;28;20207;-60
2022/01/22 13:14:09;;;;;;;83.40;17.93;;;;;;;;;;5016384;28;20391;-60
2022/01/22 13:16:35;;;;;;;87.13;17.97;;;;;;;;;;5018335;28;20322;-63
2022/01/22 13:19:01;;;;;;;100.47;19.70;;;;;;;;;;5024102;28;20184;-62
2022/01/22 13:21:28;;;;;;;84.73;17.47;;;;;;;;;;5024376;28;21429;-60
2022/01/22 13:24:00;;;;;;;66.63;14.77;;;;;;;;;;5016549;28;20250;-59
2022/01/22 13:27:01;;;;;;;58.30;14.50;;;;;;;;;;5025794;28;20291;-63
2022/01/22 13:29:28;;;;;;;46.73;11.33;;;;;;;;;;4967921;28;20205;-62
2022/01/22 13:32:01;;;;;;;49.73;12.63;;;;;;;;;;5005735;28;20183;-59
2022/01/22 13:34:46;;;;;;;72.17;15.13;;;;;;;;;;5014633;28;20239;-60
2022/01/22 13:45:25;;;;;;;95.70;18.10;;;;;;;;;;5012186;28;20230;-60
2022/01/22 13:47:55;;;;;;;56.83;13.67;;;;;;;;;;5001029;28;20310;-60
2022/01/22 13:50:22;;;;;;;104.30;20.13;;;;;;;;;;5013081;28;20191;-60
2022/01/22 13:52:47;;;;;;;85.90;17.73;;;;;;;;;;4989494;28;20201;-60
2022/01/22 13:55:14;;;;;;;98.77;19.20;;;;;;;;;;5014427;28;20226;-60
2022/01/22 13:57:43;;;;;;;72.23;16.20;;;;;;;;;;5016726;28;20291;-61
2022/01/22 14:00:11;;;;;;;88.17;18.47;;;;;;;;;;5016481;28;20275;-60
2022/01/22 14:03:04;;;;;;;67.67;14.37;;;;;;;;;;5013627;28;20279;-60
2022/01/22 14:05:31;;;;;;;102.30;18.87;;;;;;;;;;4995888;28;20219;-60
2022/01/22 14:08:06;;;;;;;71.00;15.03;;;;;;;;;;5001729;28;20193;-59
2022/01/22 14:10:32;;;;;;;91.07;18.00;;;;;;;;;;5011963;28;20313;-60
2022/01/22 14:13:08;;;;;;;121.70;22.23;;;;;;;;;;5014416;28;20283;-60
2022/01/22 14:15:43;;;;;;;85.43;17.20;;;;;;;;;;5010773;28;20223;-58
2022/01/22 14:20:39;;;;;;;95.80;19.27;;;;;;;;;;5014855;28;20334;-60
2022/01/22 14:23:13;;;;;;;109.40;20.77;;;;;;;;;;5018565;28;20223;-60
2022/01/22 14:25:58;;;;;;;71.53;15.37;;;;;;;;;;5014654;28;20208;-60
2022/01/22 14:28:26;;;;;;;89.40;17.70;;;;;;;;;;5015854;28;20180;-60
2022/01/22 14:30:52;;;;;;;44.87;12.20;;;;;;;;;;5023152;28;20203;-60
2022/01/22 14:33:18;;;;;;;97.53;19.13;;;;;;;;;;5019626;28;20188;-60
2022/01/22 14:35:46;;;;;;;72.97;15.83;;;;;;;;;;5008332;28;21111;-60
2022/01/22 14:38:19;;;;;;;75.47;15.83;;;;;;;;;;5015959;28;20210;-60
2022/01/22 14:44:03;;;;;;;85.10;16.60;;;;;;;;;;5026358;28;20250;-60
2022/01/22 14:46:41;;;;;;;79.73;15.20;;;;;;;;;;5016806;28;20285;-61
2022/01/22 14:49:07;;;;;;;111.40;20.57;;;;;;;;;;5010209;28;20322;-59
2022/01/22 14:51:33;;;;;;;71.53;15.77;;;;;;;;;;5024912;28;20298;-62
2022/01/22 14:53:59;;;;;;;38.47;10.87;;;;;;;;;;5027408;28;20212;-62
2022/01/22 14:56:25;;;;;;;61.23;13.47;;;;;;;;;;5009598;28;20220;-61
2022/01/22 14:58:51;;;;;;;58.67;13.20;;;;;;;;;;5020006;28;20906;-62
2022/01/22 15:01:17;;;;;;;44.53;11.20;;;;;;;;;;5022682;28;20259;-62
2022/01/22 15:03:43;;;;;;;163.63;27.17;;;;;;;;;;5020502;28;20184;-62
2022/01/22 15:06:09;;;;;;;93.40;18.03;;;;;;;;;;5017139;28;20218;-62
2022/01/22 15:08:35;;;;;;;37.83;10.07;;;;;;;;;;5020444;28;20684;-62
2022/01/22 15:11:01;;;;;;;73.73;14.70;;;;;;;;;;5025758;28;20244;-62
2022/01/22 15:13:26;;;;;;;131.60;22.90;;;;;;;;;;5013733;28;20187;-62
2022/01/22 15:15:58;;;;;;;52.07;12.53;;;;;;;;;;5012354;28;20212;-63
2022/01/22 15:19:13;;;;;;;48.10;11.60;;;;;;;;;;5016161;28;20188;-63
2022/01/22 15:21:13;;;;;;;63.40;13.50;;;;;;;;;;5009887;28;20689;-62
2022/01/22 15:23:39;;;;;;;75.43;15.20;;;;;;;;;;5020570;28;20198;-63
2022/01/22 15:26:06;;;;;;;79.33;15.73;;;;;;;;;;5008134;28;20684;-63
2022/01/22 15:28:42;;;;;;;83.67;16.80;;;;;;;;;;5016133;28;20192;-64
2022/01/22 15:31:15;;;;;;;93.57;17.77;;;;;;;;;;5017005;28;20202;-63
2022/01/22 15:33:53;;;;;;;71.90;14.93;;;;;;;;;;5013612;28;20189;-69
2022/01/22 15:36:18;;;;;;;84.07;17.00;;;;;;;;;;4997368;28;20579;-66
2022/01/22 15:38:44;;;;;;;71.73;15.27;;;;;;;;;;5021378;28;20259;-66
2022/01/22 15:41:10;;;;;;;56.83;13.33;;;;;;;;;;5015828;28;20205;-66
2022/01/22 15:43:36;;;;;;;206.70;33.33;;;;;;;;;;5012947;28;20312;-65
2022/01/22 15:46:02;;;;;;;327.03;42.67;;;;;;;;;;5027214;22;20227;-52
2022/01/22 15:48:29;;;;;;;102.83;13.43;;;;;;;;;;4996154;28;20223;-52
2022/01/22 15:50:55;;;;;;;217.30;28.67;;;;;;;;;;4987342;28;20189;-52
2022/01/22 15:53:21;;;;;;;192.80;24.37;;;;;;;;;;4986437;28;20228;-52
2022/01/22 15:55:49;;;;;;;459.93;61.83;;;;;;;;;;4974366;28;20228;-52
2022/01/22 15:58:15;;;;;;;156.80;19.83;;;;;;;;;;4991652;28;20296;-52
2022/01/22 16:00:42;;;;;;;110.27;14.33;;;;;;;;;;4996648;28;20177;-52
2022/01/22 16:03:09;;;;;;;182.67;22.67;;;;;;;;;;4983681;28;20201;-52
2022/01/22 16:05:35;;;;;;;161.27;20.37;;;;;;;;;;4997221;28;20211;-52
2022/01/22 16:08:02;;;;;;;114.57;14.67;;;;;;;;;;4987989;28;20276;-53
2022/01/22 16:10:28;;;;;;;163.50;20.87;;;;;;;;;;4992741;28;20211;-53
2022/01/22 16:12:54;;;;;;;107.93;14.23;;;;;;;;;;4997149;28;20684;-52